createdAt,value
2022-08-19T00:02:02.136Z,9.95
2022-08-19T00:04:37.037Z,11.18
2022-08-19T00:07:06.682Z,10.35
2022-08-19T00:09:34.286Z,9.85
2022-08-19T00:12:02.310Z,10.35
2022-08-19T00:14:33.514Z,10.07
2022-08-19T00:17:02.147Z,10.73
2022-08-19T00:19:29.596Z,9.63
2022-08-19T00:21:57.263Z,10.02
2022-08-19T00:24:24.838Z,10.23
2022-08-19T00:26:53.889Z,9.75
2022-08-19T00:29:22.731Z,9.95
2022-08-19T00:31:51.101Z,10.57
2022-08-19T00:34:18.493Z,9.63
2022-08-19T00:36:45.951Z,9.43
2022-08-19T00:39:16.508Z,9.60
2022-08-19T00:41:48.473Z,10.60
2022-08-19T00:44:27.907Z,9.32
2022-08-19T00:46:59.888Z,9.63
2022-08-19T00:49:41.733Z,10.25
2022-08-19T00:52:22.350Z,9.95
2022-08-19T00:54:52.655Z,9.77
2022-08-19T00:57:28.070Z,10.45
2022-08-19T01:00:02.194Z,10.88
2022-08-19T01:02:32.199Z,10.15
2022-08-19T01:05:03.543Z,9.95
2022-08-19T01:07:38.057Z,9.73
2022-08-19T01:10:10.353Z,9.95
2022-08-19T01:12:38.789Z,9.88
2022-08-19T01:15:10.974Z,10.00
2022-08-19T01:17:40.113Z,9.23
2022-08-19T01:20:12.048Z,9.85
2022-08-19T01:22:50.575Z,10.15
2022-08-19T01:25:25.204Z,9.43
2022-08-19T01:30:28.143Z,10.07
2022-08-19T01:32:57.059Z,11.32
2022-08-19T01:35:29.591Z,10.90
2022-08-19T01:38:09.416Z,10.85
2022-08-19T01:40:40.866Z,10.65
2022-08-19T01:43:08.082Z,11.07
2022-08-19T01:45:36.316Z,10.55
2022-08-19T01:48:03.993Z,11.45
2022-08-19T01:50:33.586Z,11.18
2022-08-19T01:53:07.881Z,11.52
2022-08-19T01:55:40.821Z,10.23
2022-08-19T01:58:18.082Z,9.75
2022-08-19T02:00:46.257Z,9.23
2022-08-19T02:03:13.974Z,8.65
2022-08-19T02:05:42.627Z,8.93
2022-08-19T02:08:11.574Z,8.80
2022-08-19T02:10:44.549Z,9.00
2022-08-19T02:13:14.239Z,8.88
2022-08-19T02:15:42.314Z,10.10
2022-08-19T02:18:09.975Z,9.10
2022-08-19T02:20:38.706Z,9.43
2022-08-19T02:23:13.533Z,9.25
2022-08-19T02:25:45.261Z,9.63
2022-08-19T02:28:15.593Z,9.63
2022-08-19T02:30:46.266Z,10.13
2022-08-19T02:33:13.318Z,10.55
2022-08-19T02:35:44.228Z,9.10
2022-08-19T02:38:26.709Z,9.88
2022-08-19T02:41:08.303Z,10.63
2022-08-19T02:43:39.457Z,10.48
2022-08-19T02:46:23.650Z,10.35
2022-08-19T02:48:58.856Z,11.25
2022-08-19T02:51:30.276Z,10.83
2022-08-19T02:53:57.672Z,10.55
2022-08-19T02:56:27.289Z,11.95
2022-08-19T02:58:59.395Z,10.20
2022-08-19T03:01:32.580Z,11.07
2022-08-19T03:04:05.352Z,10.85
2022-08-19T03:06:32.621Z,11.68
2022-08-19T03:08:59.605Z,11.73
2022-08-19T03:11:31.061Z,11.43
2022-08-19T03:13:59.491Z,11.45
2022-08-19T03:16:28.797Z,11.10
2022-08-19T03:19:02.233Z,11.93
2022-08-19T03:21:33.254Z,10.35
2022-08-19T03:24:04.697Z,10.38
2022-08-19T03:26:31.705Z,9.93
2022-08-19T03:28:59.113Z,10.35
2022-08-19T03:31:44.282Z,10.65
2022-08-19T03:34:20.523Z,9.90
2022-08-19T03:36:47.940Z,11.15
2022-08-19T03:39:16.522Z,10.45
2022-08-19T03:41:48.297Z,10.02
2022-08-19T03:44:22.546Z,9.95
2022-08-19T03:46:53.536Z,10.68
2022-08-19T03:49:27.157Z,10.30
2022-08-19T03:51:58.374Z,11.23
2022-08-19T03:54:26.576Z,10.48
2022-08-19T03:56:55.883Z,10.77
2022-08-19T03:59:33.229Z,11.38
2022-08-19T04:02:06.780Z,11.30
2022-08-19T04:04:33.681Z,12.07
2022-08-19T04:07:00.853Z,11.57
2022-08-19T04:09:27.960Z,11.02
2022-08-19T04:11:58.416Z,11.65
2022-08-19T04:14:32.921Z,10.95
2022-08-19T04:17:01.703Z,11.63
2022-08-19T04:19:31.524Z,11.55
2022-08-19T04:21:59.551Z,11.27
2022-08-19T04:24:27.246Z,11.52
2022-08-19T04:26:54.409Z,11.02
2022-08-19T04:29:26.268Z,11.13
2022-08-19T04:31:55.635Z,10.70
2022-08-19T04:34:25.446Z,10.75
2022-08-19T04:36:54.867Z,13.93
2022-08-19T04:39:45.829Z,11.75
2022-08-19T04:42:32.228Z,11.27
2022-08-19T04:44:59.785Z,10.82
2022-08-19T04:47:47.469Z,11.30
2022-08-19T04:50:15.011Z,11.27
2022-08-19T04:52:46.218Z,11.00
2022-08-19T04:55:15.338Z,12.18
2022-08-19T04:57:42.316Z,11.27
2022-08-19T05:00:11.139Z,11.65
2022-08-19T05:02:38.895Z,11.07
2022-08-19T05:05:07.364Z,11.00
2022-08-19T05:07:34.697Z,11.52
2022-08-19T05:10:02.268Z,12.23
2022-08-19T05:12:29.649Z,13.82
2022-08-19T05:14:58.973Z,12.25
2022-08-19T05:17:30.144Z,11.18
2022-08-19T05:20:17.735Z,11.48
2022-08-19T05:22:47.884Z,11.80
2022-08-19T05:25:19.959Z,10.50
2022-08-19T05:27:48.100Z,11.57
2022-08-19T05:30:16.015Z,11.90
2022-08-19T05:32:43.381Z,12.13
2022-08-19T05:35:10.889Z,12.90
2022-08-19T05:37:39.973Z,12.45
2022-08-19T05:40:08.292Z,12.20
2022-08-19T05:42:35.984Z,12.55
2022-08-19T05:45:04.202Z,11.63
2022-08-19T05:47:31.080Z,12.13
2022-08-19T05:49:57.968Z,12.77
2022-08-19T05:52:25.549Z,12.30
2022-08-19T05:54:57.536Z,12.35
2022-08-19T05:57:25.132Z,11.55
2022-08-19T05:59:58.090Z,12.38
2022-08-19T06:02:31.517Z,12.63
2022-08-19T06:04:58.679Z,11.95
2022-08-19T06:07:25.857Z,12.23
2022-08-19T06:09:59.600Z,13.25
2022-08-19T06:12:35.928Z,12.67
2022-08-19T06:15:13.169Z,11.60
2022-08-19T06:17:40.343Z,13.88
2022-08-19T06:20:14.511Z,12.27
2022-08-19T06:22:45.833Z,12.25
2022-08-19T06:25:15.293Z,12.02
2022-08-19T06:28:11.438Z,12.43
2022-08-19T06:30:30.077Z,12.07
2022-08-19T06:32:56.990Z,12.07
2022-08-19T06:35:23.985Z,11.27
2022-08-19T06:37:51.562Z,11.32
2022-08-19T06:40:18.619Z,12.48
2022-08-19T06:42:54.411Z,11.80
2022-08-19T06:45:24.531Z,11.50
2022-08-19T06:47:55.098Z,11.05
2022-08-19T06:50:25.038Z,12.18
2022-08-19T06:52:53.380Z,11.27
2022-08-19T06:55:21.453Z,10.43
2022-08-19T06:57:49.071Z,10.50
2022-08-19T07:00:16.986Z,10.93
2022-08-19T07:02:49.552Z,10.38
2022-08-19T07:05:23.399Z,11.55
2022-08-19T07:07:51.061Z,11.23
2022-08-19T07:10:18.758Z,11.13
2022-08-19T07:12:46.575Z,11.30
2022-08-19T07:15:13.960Z,11.93
2022-08-19T07:17:42.036Z,12.23
2022-08-19T07:20:11.178Z,11.00
2022-08-19T07:22:39.637Z,11.98
2022-08-19T07:25:09.380Z,11.52
2022-08-19T07:27:36.598Z,10.40
2022-08-19T07:30:05.930Z,11.07
2022-08-19T07:32:32.950Z,11.75
2022-08-19T07:35:01.830Z,11.10
2022-08-19T07:37:32.995Z,11.23
2022-08-19T07:40:02.358Z,11.57
2022-08-19T07:42:31.307Z,11.57
2022-08-19T07:44:59.296Z,11.18
2022-08-19T07:47:58.576Z,11.32
2022-08-19T07:50:14.248Z,11.30
2022-08-19T07:52:41.509Z,11.15
2022-08-19T07:55:40.035Z,12.48
2022-08-19T07:57:58.978Z,11.25
2022-08-19T08:00:26.069Z,11.20
2022-08-19T08:02:55.372Z,12.20
2022-08-19T08:05:44.004Z,16.35
2022-08-19T08:08:32.002Z,12.32
2022-08-19T08:11:00.632Z,11.50
2022-08-19T08:13:28.918Z,12.13
2022-08-19T08:15:58.024Z,11.43
2022-08-19T08:18:27.537Z,11.30
2022-08-19T08:20:59.027Z,10.68
2022-08-19T08:23:27.322Z,10.43
2022-08-19T08:25:58.017Z,11.20
2022-08-19T08:28:29.838Z,11.43
2022-08-19T08:30:58.822Z,10.70
2022-08-19T08:33:33.293Z,10.75
2022-08-19T08:36:09.856Z,11.32
2022-08-19T08:38:40.971Z,10.18
2022-08-19T08:41:47.546Z,10.88
2022-08-19T08:44:44.495Z,10.45
2022-08-19T08:47:18.706Z,10.48
2022-08-19T08:50:02.907Z,10.60
2022-08-19T08:52:36.382Z,10.23
2022-08-19T08:55:14.296Z,11.13
2022-08-19T08:57:56.355Z,9.95
2022-08-19T09:00:29.040Z,10.00
2022-08-19T09:02:58.400Z,10.05
2022-08-19T09:06:00.645Z,10.18
2022-08-19T09:08:41.809Z,9.60
2022-08-19T09:11:43.067Z,9.70
2022-08-19T09:14:49.256Z,10.02
2022-08-19T09:17:14.450Z,10.55
2022-08-19T09:19:53.973Z,10.07
2022-08-19T09:22:25.597Z,10.55
2022-08-19T09:24:55.218Z,10.07
2022-08-19T09:27:41.706Z,9.60
2022-08-19T09:30:19.625Z,10.15
2022-08-19T09:32:47.512Z,10.80
2022-08-19T09:35:23.132Z,11.88
2022-08-19T09:37:57.335Z,11.30
2022-08-19T09:40:26.690Z,10.85
2022-08-19T09:42:54.106Z,10.63
2022-08-19T09:45:23.191Z,11.13
2022-08-19T09:47:54.240Z,11.25
2022-08-19T09:50:24.447Z,11.27
2022-08-19T09:52:55.253Z,10.80
2022-08-19T09:55:31.323Z,11.32
2022-08-19T09:58:01.803Z,11.65
2022-08-19T10:00:29.430Z,11.38
2022-08-19T10:02:56.383Z,11.23
2022-08-19T10:05:42.651Z,10.80
2022-08-19T10:08:13.300Z,10.63
2022-08-19T10:10:46.220Z,11.15
2022-08-19T10:13:17.635Z,11.35
2022-08-19T10:15:48.100Z,10.55
2022-08-19T10:18:19.303Z,9.65
2022-08-19T10:20:51.237Z,11.13
2022-08-19T10:23:21.435Z,10.63
2022-08-19T10:25:50.773Z,10.00
2022-08-19T10:28:19.208Z,11.00
2022-08-19T10:30:48.430Z,12.23
2022-08-19T10:33:16.203Z,11.70
2022-08-19T10:36:17.483Z,10.63
2022-08-19T10:38:52.298Z,9.63
2022-08-19T10:41:28.694Z,9.98
2022-08-19T10:44:04.379Z,9.63
2022-08-19T10:46:34.030Z,10.02
2022-08-19T10:49:02.606Z,9.60
2022-08-19T10:51:49.045Z,9.18
2022-08-19T10:54:17.441Z,9.18
2022-08-19T10:56:58.468Z,9.32
2022-08-19T10:59:33.832Z,9.75
2022-08-19T11:02:07.540Z,9.63
2022-08-19T11:04:34.476Z,9.00
2022-08-19T11:07:04.313Z,9.63
2022-08-19T11:09:34.384Z,8.98
2022-08-19T11:12:02.655Z,8.85
2022-08-19T11:14:32.166Z,9.73
2022-08-19T11:17:02.680Z,9.63
2022-08-19T11:19:29.750Z,10.20
2022-08-19T11:21:57.788Z,8.70
2022-08-19T11:24:28.793Z,9.60
2022-08-19T11:27:05.760Z,9.38
2022-08-19T11:29:36.840Z,9.30
2022-08-19T11:32:11.217Z,9.23
2022-08-19T11:34:38.884Z,9.48
2022-08-19T11:37:06.949Z,10.05
2022-08-19T11:39:37.608Z,9.20
2022-08-19T11:42:27.220Z,8.98
2022-08-19T11:44:55.080Z,8.88
2022-08-19T11:47:22.147Z,9.05
2022-08-19T11:49:49.410Z,9.30
2022-08-19T11:52:16.440Z,8.57
2022-08-19T11:54:43.477Z,8.27
2022-08-19T11:57:10.353Z,8.98
2022-08-19T11:59:37.376Z,9.07
2022-08-19T12:02:04.643Z,9.18
2022-08-19T12:04:31.484Z,8.43
2022-08-19T12:06:58.386Z,9.20
2022-08-19T12:09:25.580Z,8.43
2022-08-19T12:11:52.456Z,8.73
2022-08-19T12:14:19.661Z,8.48
2022-08-19T12:16:51.333Z,8.02
2022-08-19T12:19:21.903Z,7.93
2022-08-19T12:21:50.777Z,7.50
2022-08-19T12:24:24.222Z,7.88
2022-08-19T12:26:53.356Z,7.38
2022-08-19T12:29:23.947Z,7.38
2022-08-19T12:31:52.378Z,7.50
2022-08-19T12:34:20.883Z,7.47
2022-08-19T12:36:50.073Z,7.53
2022-08-19T12:39:17.408Z,7.30
2022-08-19T12:41:51.283Z,7.53
2022-08-19T12:44:29.616Z,7.13
2022-08-19T12:46:59.900Z,6.90
2022-08-19T12:49:52.111Z,5.78
2022-08-19T12:52:22.434Z,6.43
2022-08-19T12:54:54.579Z,6.68
2022-08-19T12:57:31.917Z,6.88
2022-08-19T13:00:12.848Z,6.82
2022-08-19T13:02:42.324Z,6.53
2022-08-19T13:05:12.414Z,6.35
2022-08-19T13:07:41.058Z,6.53
2022-08-19T13:10:12.051Z,6.55
2022-08-19T13:12:39.750Z,5.85
2022-08-19T13:15:10.614Z,6.03
2022-08-19T13:17:40.164Z,6.18
2022-08-19T13:20:10.497Z,6.63
2022-08-19T13:22:38.591Z,5.68
2022-08-19T13:25:07.854Z,6.95
2022-08-19T13:27:35.109Z,6.97
2022-08-19T13:30:23.711Z,6.60
2022-08-19T13:33:09.548Z,7.45
2022-08-19T13:35:36.585Z,6.90
2022-08-19T13:38:05.921Z,7.40
2022-08-19T13:40:39.915Z,7.40
2022-08-19T13:43:15.803Z,7.07
2022-08-19T13:45:57.423Z,6.97
2022-08-19T13:48:27.845Z,7.63
2022-08-19T13:50:55.374Z,7.93
2022-08-19T13:53:22.698Z,8.10
2022-08-19T13:55:51.507Z,7.68
2022-08-19T13:58:18.428Z,7.93
2022-08-19T14:00:47.835Z,7.70
2022-08-19T14:03:15.512Z,7.25
2022-08-19T14:05:42.413Z,8.10
2022-08-19T14:08:10.408Z,8.13
2022-08-19T14:10:37.362Z,8.18
2022-08-19T14:13:05.338Z,8.10
2022-08-19T14:15:32.831Z,8.13
2022-08-19T14:18:00.229Z,7.90
2022-08-19T14:20:27.857Z,8.30
2022-08-19T14:22:56.194Z,7.97
2022-08-19T14:25:27.043Z,8.45
2022-08-19T14:27:54.859Z,8.52
2022-08-19T14:30:34.176Z,8.02
2022-08-19T14:33:02.959Z,8.45
2022-08-19T14:35:33.521Z,8.63
2022-08-19T14:38:01.055Z,9.10
2022-08-19T14:40:31.280Z,8.05
2022-08-19T14:43:05.188Z,8.50
2022-08-19T14:45:37.090Z,8.98
2022-08-19T14:48:06.994Z,8.40
2022-08-19T14:50:35.367Z,9.07
2022-08-19T14:53:12.877Z,8.52
2022-08-19T14:55:44.061Z,8.77
2022-08-19T14:58:29.312Z,8.15
2022-08-19T15:01:00.270Z,7.95
2022-08-19T15:03:28.761Z,8.60
2022-08-19T15:05:58.265Z,8.13
2022-08-19T15:08:26.352Z,8.45
2022-08-19T15:10:54.006Z,8.23
2022-08-19T15:13:21.507Z,8.43
2022-08-19T15:15:49.216Z,8.27
2022-08-19T15:18:16.646Z,7.63
2022-08-19T15:20:44.464Z,8.35
2022-08-19T15:23:16.253Z,7.53
2022-08-19T15:25:44.308Z,8.23
2022-08-19T15:28:12.054Z,7.55
2022-08-19T15:30:40.852Z,8.15
2022-08-19T15:33:08.491Z,8.68
2022-08-19T15:35:35.566Z,8.13
2022-08-19T15:38:03.018Z,7.90
2022-08-19T15:40:29.925Z,7.70
2022-08-19T15:42:58.751Z,7.97
2022-08-19T15:45:32.865Z,7.72
2022-08-19T15:48:05.326Z,7.60
2022-08-19T15:50:32.589Z,7.28
2022-08-19T15:53:05.182Z,7.50
2022-08-19T15:55:37.012Z,7.38
2022-08-19T15:58:31.601Z,7.22
2022-08-19T16:01:21.295Z,6.53
2022-08-19T16:04:11.322Z,7.38
2022-08-19T16:06:49.463Z,7.13
2022-08-19T16:09:23.483Z,7.50
2022-08-19T16:11:56.865Z,6.78
2022-08-19T16:14:26.811Z,7.80
2022-08-19T16:16:54.929Z,8.18
2022-08-19T16:19:21.916Z,8.30
2022-08-19T16:21:53.047Z,8.98
2022-08-19T16:24:25.989Z,6.53
2022-08-19T16:26:53.636Z,7.15
2022-08-19T16:29:34.423Z,7.28
2022-08-19T16:32:10.646Z,6.38
2022-08-19T16:34:40.226Z,7.15
2022-08-19T16:37:07.847Z,7.88
2022-08-19T16:39:34.849Z,7.72
2022-08-19T16:42:02.809Z,6.85
2022-08-19T16:44:30.161Z,7.05
2022-08-19T16:46:59.704Z,7.43
2022-08-19T16:49:54.042Z,7.18
2022-08-19T16:52:18.220Z,7.75
2022-08-19T16:54:45.572Z,7.40
2022-08-19T16:57:12.915Z,7.68
2022-08-19T16:59:43.683Z,8.63
2022-08-19T17:02:22.421Z,8.05
2022-08-19T17:04:58.303Z,8.38
2022-08-19T17:07:33.273Z,7.50
2022-08-19T17:10:03.422Z,7.78
2022-08-19T17:12:32.369Z,7.65
2022-08-19T17:15:01.406Z,6.70
2022-08-19T17:17:30.113Z,6.97
2022-08-19T17:19:59.270Z,8.55
2022-08-19T17:22:26.922Z,7.50
2022-08-19T17:24:56.308Z,7.93
2022-08-19T17:27:32.058Z,8.38
2022-08-19T17:30:03.086Z,8.00
2022-08-19T17:32:34.220Z,8.07
2022-08-19T17:35:03.772Z,8.13
2022-08-19T17:37:31.260Z,7.68
2022-08-19T17:39:58.355Z,9.10
2022-08-19T17:42:25.548Z,7.65
2022-08-19T17:44:52.572Z,7.90
2022-08-19T17:47:21.035Z,8.13
2022-08-19T17:49:48.281Z,8.02
2022-08-19T17:52:15.586Z,8.07
2022-08-19T17:54:42.534Z,8.25
2022-08-19T17:57:09.808Z,7.88
2022-08-19T17:59:39.825Z,7.07
2022-08-19T18:02:10.057Z,7.47
2022-08-19T18:04:38.981Z,7.45
2022-08-19T18:07:06.450Z,7.50
2022-08-19T18:09:41.381Z,7.53
2022-08-19T18:12:12.805Z,6.50
2022-08-19T18:14:41.932Z,6.43
2022-08-19T18:17:13.516Z,6.65
2022-08-19T18:19:43.701Z,6.90
2022-08-19T18:22:29.106Z,7.13
2022-08-19T18:24:58.465Z,6.72
2022-08-19T18:27:27.901Z,6.75
2022-08-19T18:29:57.991Z,6.10
2022-08-19T18:32:34.691Z,6.18
2022-08-19T18:35:10.979Z,6.70
2022-08-19T18:40:26.686Z,5.72
2022-08-19T18:43:13.259Z,6.10
2022-08-19T18:48:46.064Z,6.20
2022-08-19T18:51:14.513Z,6.55
2022-08-19T18:53:43.252Z,6.25
2022-08-19T18:56:13.552Z,6.05
2022-08-19T18:58:41.737Z,5.70
2022-08-19T19:01:17.958Z,5.60
2022-08-19T19:06:23.144Z,5.88
2022-08-19T19:08:52.393Z,6.63
2022-08-19T19:11:33.854Z,5.95
2022-08-19T19:14:03.857Z,5.32
2022-08-19T19:16:32.533Z,6.05
2022-08-19T19:18:59.658Z,5.95
2022-08-19T19:21:30.843Z,5.72
2022-08-19T19:24:02.070Z,6.45
2022-08-19T19:26:29.218Z,6.03
2022-08-19T19:28:57.426Z,5.80
2022-08-19T19:31:26.814Z,5.45
2022-08-19T19:33:56.798Z,6.40
2022-08-19T19:36:24.060Z,5.82
2022-08-19T19:38:51.293Z,6.32
2022-08-19T19:41:25.908Z,6.53
2022-08-19T19:44:23.156Z,7.28
2022-08-19T19:46:43.577Z,6.00
2022-08-19T19:49:11.902Z,5.60
2022-08-19T19:51:41.259Z,5.85
2022-08-19T19:54:14.235Z,6.25
2022-08-19T19:56:48.822Z,6.40
2022-08-19T19:59:16.777Z,8.27
2022-08-19T20:01:46.081Z,6.15
2022-08-19T20:04:15.639Z,6.72
2022-08-19T20:06:43.358Z,6.22
2022-08-19T20:09:14.217Z,6.90
2022-08-19T20:11:53.493Z,6.47
2022-08-19T20:14:30.268Z,6.25
2022-08-19T20:16:59.001Z,6.88
2022-08-19T20:19:37.657Z,6.47
2022-08-19T20:22:06.719Z,7.25
2022-08-19T20:24:36.462Z,7.13
2022-08-19T20:27:04.911Z,7.10
2022-08-19T20:29:39.300Z,7.65
2022-08-19T20:32:09.290Z,6.80
2022-08-19T20:34:37.167Z,7.82
2022-08-19T20:37:04.821Z,6.93
2022-08-19T20:39:32.014Z,8.20
2022-08-19T20:42:00.724Z,7.28
2022-08-19T20:44:28.007Z,6.90
2022-08-19T20:46:58.379Z,8.38
2022-08-19T20:49:27.237Z,7.97
2022-08-19T20:51:56.521Z,7.40
2022-08-19T20:54:24.682Z,6.60
2022-08-19T20:56:52.819Z,6.45
2022-08-19T20:59:21.749Z,6.60
2022-08-19T21:01:51.691Z,6.18
2022-08-19T21:04:21.588Z,6.25
2022-08-19T21:06:49.998Z,6.38
2022-08-19T21:09:17.300Z,5.40
2022-08-19T21:11:44.255Z,5.75
2022-08-19T21:14:12.841Z,5.88
2022-08-19T21:16:39.797Z,5.80
2022-08-19T21:19:07.750Z,5.72
2022-08-19T21:21:34.958Z,6.03
2022-08-19T21:24:02.249Z,6.88
2022-08-19T21:26:29.190Z,6.30
2022-08-19T21:28:56.583Z,6.07
2022-08-19T21:31:23.453Z,6.30
2022-08-19T21:33:50.526Z,6.00
2022-08-19T21:36:17.699Z,5.47
2022-08-19T21:38:44.560Z,5.43
2022-08-19T21:41:11.540Z,5.72
2022-08-19T21:43:39.013Z,5.95
2022-08-19T21:46:07.107Z,5.07
2022-08-19T21:48:34.024Z,5.32
2022-08-19T21:51:01.168Z,5.70
2022-08-19T21:53:33.993Z,6.57
2022-08-19T21:56:03.094Z,6.13
2022-08-19T21:58:30.824Z,6.55
2022-08-19T22:01:01.655Z,6.22
2022-08-19T22:03:29.520Z,6.47
2022-08-19T22:05:56.372Z,6.40
2022-08-19T22:08:23.397Z,6.68
2022-08-19T22:10:50.657Z,6.78
2022-08-19T22:13:20.112Z,6.40
2022-08-19T22:15:48.676Z,6.88
2022-08-19T22:18:17.961Z,6.80
2022-08-19T22:20:45.621Z,6.28
2022-08-19T22:23:12.712Z,6.90
2022-08-19T22:25:44.677Z,7.10
2022-08-19T22:28:15.168Z,6.75
2022-08-19T22:30:51.139Z,7.03
2022-08-19T22:33:21.346Z,6.40
2022-08-19T22:35:51.690Z,6.60
2022-08-19T22:38:19.345Z,7.18
2022-08-19T22:40:48.576Z,7.20
2022-08-19T22:43:24.860Z,6.85
2022-08-19T22:45:54.347Z,7.28
2022-08-19T22:48:26.355Z,6.40
2022-08-19T22:51:13.244Z,6.85
2022-08-19T22:53:45.020Z,7.15
2022-08-19T22:56:15.530Z,6.43
2022-08-19T22:58:43.613Z,6.47
2022-08-19T23:01:14.663Z,6.43
2022-08-19T23:03:57.020Z,6.50
2022-08-19T23:06:23.853Z,6.78
2022-08-19T23:09:01.496Z,7.45
2022-08-19T23:11:33.399Z,7.55
2022-08-19T23:14:00.369Z,7.20
2022-08-19T23:16:27.557Z,7.85
2022-08-19T23:18:56.182Z,7.55
2022-08-19T23:21:26.574Z,8.35
2022-08-19T23:23:53.863Z,8.57
2022-08-19T23:26:21.441Z,9.18
2022-08-19T23:29:06.973Z,8.57
2022-08-19T23:31:36.213Z,9.27
2022-08-19T23:34:04.081Z,9.57
2022-08-19T23:36:31.584Z,9.05
2022-08-19T23:38:59.537Z,9.80
2022-08-19T23:41:29.860Z,8.73
2022-08-19T23:43:57.360Z,11.15
2022-08-19T23:46:28.519Z,10.18
2022-08-19T23:48:56.867Z,10.50
2022-08-19T23:51:26.616Z,11.30
2022-08-19T23:53:53.659Z,11.60
2022-08-19T23:56:21.479Z,12.63
2022-08-19T23:58:49.126Z,12.60
